KCVO - Corvallis, OR
Updated: Fri, 28-Apr-2017 10:35am PDT
Overcast
Overcast
 Wind from calm
Wind: Calm
Temperature: 52°F , 11°C
Dew Point: 37°F , 3°C
Humidity: 58%
Barometer: 30.39 inHg , 1029.1 hPa
Clouds: Overcast
Visibility: 10 miles , 16 km
Cloud details: Overcast 5000 ft
2017/04/28 17:35 KCVO 281735Z 00000KT 10SM OVC050 11/03 A3039 RMK AO1